Springhill, Arkansas
Current Conditions -  °F | °C
As of 4:58 PM on Saturday 22 Nov 2014 (Local Time) from KLRF Reporting Station
Clear Clear  
Wind Chill: 61°   Ceiling: Unl
Heat Index: 61°   Visibility: 10mi
Dew Point: 52°   Wind: 3mph
Humidity: 71%   Direction: 90°E
Pressure: 30"   Gusts: NA
Location:  35.2494°N, 92.313°W
Report Text: KLRF 222258Z AUTO 09003KT 10SM CLR 16/11 A3000 RMK AO2 SLP162 T01620109
Loading
Personal Weather Stations






























Interactive Weather Map New forecast layout! Learn more

10-Day Weather Forecast

Advertisements
Track Severe Weather on mobile